NGTA/TRW METAR and TAF weather

Enter ICAO airport designator
Station Type Date Time Source
NGTA METAR 2021/07/26 12:00 UTC NOAA

NGTA 261200Z 08005KT 9999 SCT019 27/24 Q1010


Station Type Date Time Source
NGTA Decoded METAR 2021/07/26 12:00 UTC NOAA

Tarawa, Kiribati (NGTA) 01-21N 172-55E 4M
Jul 26, 2021 - 08:00 AM EDT / 2021.07.26 1200 UTC
Wind: from the E (080 degrees) at 6 MPH (5 KT):0
Visibility: greater than 7 mile(s):0
Sky conditions: partly cloudy
Temperature: 80 F (27 C)
Dew Point: 75 F (24 C)
Relative Humidity: 83%
Pressure (altimeter): 29.83 in. Hg (1010 hPa)
ob: NGTA 261200Z 08005KT 9999 SCT019 27/24 Q1010
cycle: 12

Station Type Date Time Source
NGTA TAF 2021/07/26 12:09 UTC NOAA

TAF TAF NGTA 261107Z 2612/2712 12008KT 9999 SCT020 PROB40
TEMPO 2612/2622 3000 TSRA FEW018CB

Example: see airport list